createdAt,value
2019-04-30T00:01:18.819Z,15.83
2019-04-30T00:04:05.638Z,15.07
2019-04-30T00:06:39.350Z,16.47
2019-04-30T00:09:09.644Z,15.03
2019-04-30T00:11:39.696Z,16.63
2019-04-30T00:14:09.475Z,17.13
2019-04-30T00:16:40.045Z,15.73
2019-04-30T00:19:10.718Z,14.13
2019-04-30T00:21:41.307Z,14.37
2019-04-30T00:24:12.087Z,12.37
2019-04-30T00:26:46.797Z,12.03
2019-04-30T00:29:19.104Z,13.30
2019-04-30T00:31:47.105Z,13.17
2019-04-30T00:34:16.952Z,13.00
2019-04-30T00:36:46.819Z,12.70
2019-04-30T00:39:17.655Z,11.53
2019-04-30T00:41:47.578Z,11.10
2019-04-30T00:44:19.999Z,12.20
2019-04-30T00:46:48.704Z,11.50
2019-04-30T00:49:22.901Z,10.73
2019-04-30T00:51:53.736Z,10.67
2019-04-30T00:54:22.516Z,10.00
2019-04-30T00:56:52.575Z,10.27
2019-04-30T00:59:22.657Z,10.20
2019-04-30T01:01:59.969Z,9.47
2019-04-30T01:04:34.961Z,9.83
2019-04-30T01:07:08.663Z,9.07
2019-04-30T01:09:39.633Z,8.93
2019-04-30T01:12:08.408Z,8.37
2019-04-30T01:14:38.649Z,8.47
2019-04-30T01:17:12.145Z,8.20
2019-04-30T01:19:40.160Z,8.67
2019-04-30T01:22:09.922Z,8.23
2019-04-30T01:24:39.656Z,9.27
2019-04-30T01:27:10.562Z,8.83
2019-04-30T01:29:44.335Z,9.27
2019-04-30T01:32:17.650Z,10.37
2019-04-30T01:34:49.802Z,11.20
2019-04-30T01:37:20.253Z,9.70
2019-04-30T01:39:49.232Z,10.57
2019-04-30T01:42:19.344Z,11.90
2019-04-30T01:44:53.545Z,11.77
2019-04-30T01:47:21.531Z,11.60
2019-04-30T01:49:55.825Z,11.33
2019-04-30T01:52:23.296Z,13.53
2019-04-30T01:54:53.992Z,13.07
2019-04-30T01:57:31.331Z,15.00
2019-04-30T02:00:09.748Z,17.27
2019-04-30T02:02:41.178Z,17.23
2019-04-30T02:05:11.137Z,18.37
2019-04-30T02:07:40.869Z,19.63
2019-04-30T02:10:11.430Z,23.90
2019-04-30T02:12:41.167Z,23.47
2019-04-30T02:15:11.971Z,18.93
2019-04-30T02:17:41.703Z,25.47
2019-04-30T02:20:12.062Z,22.60
2019-04-30T02:22:41.824Z,24.33
2019-04-30T02:25:11.683Z,24.63
2019-04-30T02:27:41.461Z,25.20
2019-04-30T02:30:11.536Z,24.93
2019-04-30T02:32:42.603Z,24.90
2019-04-30T02:35:30.380Z,24.67
2019-04-30T02:38:20.198Z,23.83
2019-04-30T02:40:50.863Z,23.17
2019-04-30T02:43:22.812Z,22.33
2019-04-30T02:45:55.670Z,21.97
2019-04-30T02:48:29.456Z,23.83
2019-04-30T02:51:01.182Z,22.13
2019-04-30T02:53:52.248Z,19.73
2019-04-30T02:56:26.547Z,20.53
2019-04-30T02:58:54.948Z,22.93
2019-04-30T03:01:24.697Z,22.97
2019-04-30T03:03:54.487Z,23.30
2019-04-30T03:06:24.235Z,22.97
2019-04-30T03:08:53.980Z,22.17
2019-04-30T03:11:23.775Z,22.40
2019-04-30T03:13:53.533Z,21.13
2019-04-30T03:16:25.869Z,22.70
2019-04-30T03:19:00.173Z,21.13
2019-04-30T03:21:46.553Z,20.70
2019-04-30T03:24:16.312Z,19.07
2019-04-30T03:26:49.680Z,20.90
2019-04-30T03:29:20.455Z,20.33
2019-04-30T03:31:52.467Z,19.57
2019-04-30T03:34:25.944Z,18.33
2019-04-30T03:36:53.536Z,18.43
2019-04-30T03:39:23.617Z,19.20
2019-04-30T03:41:53.356Z,19.97
2019-04-30T03:44:25.879Z,18.67
2019-04-30T03:46:54.497Z,18.67
2019-04-30T03:49:24.261Z,20.87
2019-04-30T03:51:54.039Z,20.47
2019-04-30T03:54:23.795Z,20.70
2019-04-30T03:56:55.159Z,18.57
2019-04-30T03:59:24.901Z,20.10
2019-04-30T04:01:56.224Z,18.77
2019-04-30T04:04:27.558Z,17.80
2019-04-30T04:07:00.115Z,16.50
2019-04-30T04:09:31.604Z,16.83
2019-04-30T04:12:20.419Z,17.43
2019-04-30T04:14:51.147Z,17.60
2019-04-30T04:17:22.854Z,17.37
2019-04-30T04:19:52.622Z,16.83
2019-04-30T04:22:22.363Z,16.43
2019-04-30T04:24:52.119Z,15.07
2019-04-30T04:27:21.897Z,15.07
2019-04-30T04:29:51.640Z,14.13
2019-04-30T04:32:24.419Z,14.87
2019-04-30T04:34:53.692Z,13.33
2019-04-30T04:37:23.479Z,12.37
2019-04-30T04:39:53.223Z,13.20
2019-04-30T04:42:33.003Z,13.17
2019-04-30T04:45:02.033Z,13.83
2019-04-30T04:47:31.885Z,13.33
2019-04-30T04:50:01.584Z,12.70
2019-04-30T04:52:31.886Z,12.83
2019-04-30T04:55:01.805Z,12.17
2019-04-30T04:57:31.551Z,12.67
2019-04-30T05:00:07.117Z,11.40
2019-04-30T05:02:35.353Z,11.77
2019-04-30T05:05:09.488Z,12.20
2019-04-30T05:07:39.978Z,12.80
2019-04-30T05:10:10.570Z,13.43
2019-04-30T05:12:40.296Z,12.13
2019-04-30T05:15:11.891Z,12.57
2019-04-30T05:17:41.638Z,12.90
2019-04-30T05:20:11.579Z,11.57
2019-04-30T05:22:41.344Z,12.27
2019-04-30T05:25:11.487Z,11.93
2019-04-30T05:27:41.261Z,12.50
2019-04-30T05:30:12.219Z,11.97
2019-04-30T05:32:43.077Z,12.27
2019-04-30T05:35:12.807Z,9.60
2019-04-30T05:37:42.574Z,10.00
2019-04-30T05:40:12.777Z,12.90
2019-04-30T05:42:42.549Z,12.20
2019-04-30T05:45:13.621Z,13.37
2019-04-30T05:47:43.351Z,14.07
2019-04-30T05:50:14.100Z,14.07
2019-04-30T05:52:43.859Z,13.47
2019-04-30T05:55:13.928Z,14.30
2019-04-30T05:57:55.648Z,14.80
2019-04-30T06:00:15.398Z,14.27
2019-04-30T06:02:45.293Z,15.47
2019-04-30T06:05:15.266Z,14.90
2019-04-30T06:07:45.315Z,14.03
2019-04-30T06:10:19.515Z,14.43
2019-04-30T06:12:50.840Z,16.10
2019-04-30T06:15:25.296Z,15.23
2019-04-30T06:18:00.711Z,15.77
2019-04-30T06:20:28.672Z,17.77
2019-04-30T06:22:59.644Z,17.00
2019-04-30T06:25:37.299Z,19.20
2019-04-30T06:28:01.202Z,20.17
2019-04-30T06:30:31.838Z,21.00
2019-04-30T06:33:02.469Z,20.17
2019-04-30T06:35:33.354Z,22.07
2019-04-30T06:38:03.090Z,23.27
2019-04-30T06:40:32.840Z,19.93
2019-04-30T06:43:02.701Z,21.80
2019-04-30T06:45:33.030Z,19.93
2019-04-30T06:48:05.023Z,20.37
2019-04-30T06:50:34.880Z,21.37
2019-04-30T06:53:04.620Z,23.10
2019-04-30T06:55:34.372Z,20.53
2019-04-30T06:58:14.693Z,18.90
2019-04-30T07:00:39.663Z,19.40
2019-04-30T07:03:09.829Z,18.33
2019-04-30T07:05:40.854Z,17.77
2019-04-30T07:08:37.383Z,17.97
2019-04-30T07:11:19.313Z,17.43
2019-04-30T07:13:52.300Z,17.00
2019-04-30T07:16:21.989Z,16.40
2019-04-30T07:18:51.726Z,15.80
2019-04-30T07:21:21.469Z,15.27
2019-04-30T07:23:51.327Z,15.67
2019-04-30T07:26:24.379Z,16.07
2019-04-30T07:28:55.341Z,15.83
2019-04-30T07:31:25.123Z,15.10
2019-04-30T07:33:54.915Z,15.43
2019-04-30T07:36:42.457Z,15.60
2019-04-30T07:38:56.892Z,14.60
2019-04-30T07:41:30.815Z,13.90
2019-04-30T07:43:59.389Z,13.10
2019-04-30T07:46:41.073Z,14.03
2019-04-30T07:49:10.053Z,14.50
2019-04-30T07:51:42.332Z,12.53
2019-04-30T07:54:12.559Z,13.93
2019-04-30T07:56:42.339Z,14.33
2019-04-30T07:59:12.158Z,13.57
2019-04-30T08:02:00.223Z,15.03
2019-04-30T08:04:29.083Z,14.70
2019-04-30T08:07:01.513Z,15.97
2019-04-30T08:09:39.226Z,14.83
2019-04-30T08:12:02.791Z,15.00
2019-04-30T08:14:32.624Z,16.67
2019-04-30T08:17:02.377Z,15.77
2019-04-30T08:19:32.100Z,16.80
2019-04-30T08:22:01.877Z,15.83
2019-04-30T08:24:31.630Z,16.50
2019-04-30T08:27:01.442Z,15.50
2019-04-30T08:29:31.203Z,17.67
2019-04-30T08:32:00.968Z,20.00
2019-04-30T08:34:30.720Z,19.67
2019-04-30T08:37:12.431Z,23.57
2019-04-30T08:39:39.600Z,18.60
2019-04-30T08:42:09.036Z,18.57
2019-04-30T08:44:39.991Z,18.47
2019-04-30T08:47:09.749Z,18.30
2019-04-30T08:49:40.437Z,18.17
2019-04-30T08:52:10.993Z,17.50
2019-04-30T08:54:41.023Z,17.90
2019-04-30T08:57:10.770Z,16.70
2019-04-30T08:59:40.531Z,18.87
2019-04-30T09:02:16.008Z,16.27
2019-04-30T09:04:41.667Z,17.33
2019-04-30T09:07:12.880Z,16.77
2019-04-30T09:09:44.556Z,17.77
2019-04-30T09:12:15.572Z,18.50
2019-04-30T09:14:45.320Z,18.43
2019-04-30T09:17:15.080Z,19.63
2019-04-30T09:19:44.966Z,16.87
2019-04-30T09:22:15.354Z,18.50
2019-04-30T09:24:45.167Z,17.87
2019-04-30T09:27:15.031Z,17.03
2019-04-30T09:29:44.773Z,17.23
2019-04-30T09:32:14.540Z,16.43
2019-04-30T09:34:44.309Z,17.37
2019-04-30T09:37:15.155Z,17.47
2019-04-30T09:39:44.973Z,18.50
2019-04-30T09:42:14.774Z,17.77
2019-04-30T09:44:44.538Z,15.03
2019-04-30T09:47:14.287Z,16.20
2019-04-30T09:49:44.036Z,17.20
2019-04-30T09:52:14.015Z,17.33
2019-04-30T09:54:43.877Z,17.13
2019-04-30T09:57:13.738Z,14.80
2019-04-30T09:59:44.584Z,15.60
2019-04-30T10:02:14.429Z,15.07
2019-04-30T10:04:44.387Z,16.13
2019-04-30T10:07:15.317Z,16.27
2019-04-30T10:09:46.028Z,15.97
2019-04-30T10:12:16.815Z,16.93
2019-04-30T10:14:46.598Z,17.20
2019-04-30T10:17:21.557Z,15.47
2019-04-30T10:19:51.295Z,15.47
2019-04-30T10:22:21.434Z,16.33
2019-04-30T10:24:51.171Z,15.77
2019-04-30T10:27:20.936Z,16.90
2019-04-30T10:29:50.822Z,16.00
2019-04-30T10:32:20.576Z,15.93
2019-04-30T10:34:50.348Z,16.30
2019-04-30T10:37:20.488Z,17.00
2019-04-30T10:39:50.266Z,17.20
2019-04-30T10:42:20.013Z,18.03
2019-04-30T10:44:49.982Z,16.67
2019-04-30T10:47:19.728Z,16.00
2019-04-30T10:49:49.576Z,16.57
2019-04-30T10:52:19.347Z,18.73
2019-04-30T10:54:49.705Z,19.03
2019-04-30T10:57:19.543Z,18.33
2019-04-30T10:59:49.355Z,17.43
2019-04-30T11:02:19.120Z,21.53
2019-04-30T11:04:49.053Z,17.17
2019-04-30T11:07:18.764Z,17.50
2019-04-30T11:09:49.347Z,18.73
2019-04-30T11:12:20.057Z,20.27
2019-04-30T11:14:49.795Z,18.07
2019-04-30T11:17:19.905Z,17.30
2019-04-30T11:19:49.966Z,19.20
2019-04-30T11:22:20.075Z,14.60
2019-04-30T11:24:58.902Z,16.00
2019-04-30T11:27:22.025Z,16.13
2019-04-30T11:29:53.280Z,17.47
2019-04-30T11:32:24.499Z,17.43
2019-04-30T11:34:54.479Z,17.83
2019-04-30T11:37:24.231Z,15.27
2019-04-30T11:39:53.973Z,14.70
2019-04-30T11:42:23.707Z,13.47
2019-04-30T11:44:53.523Z,13.97
2019-04-30T11:47:25.363Z,13.63
2019-04-30T11:49:55.451Z,13.87
2019-04-30T11:52:25.227Z,13.27
2019-04-30T11:54:54.986Z,13.73
2019-04-30T11:57:24.724Z,12.80
2019-04-30T11:59:54.475Z,12.60
2019-04-30T12:02:26.396Z,14.40
2019-04-30T12:04:56.136Z,13.03
2019-04-30T12:07:36.430Z,10.93
2019-04-30T12:10:29.274Z,12.10
2019-04-30T12:12:58.823Z,11.83
2019-04-30T12:15:29.579Z,10.63
2019-04-30T12:17:59.650Z,11.10
2019-04-30T12:20:29.401Z,12.13
2019-04-30T12:22:59.220Z,11.60
2019-04-30T12:25:30.420Z,10.83
2019-04-30T12:28:00.274Z,10.87
2019-04-30T12:30:30.059Z,12.00
2019-04-30T12:32:59.805Z,16.47
2019-04-30T12:35:29.568Z,11.23
2019-04-30T12:37:59.327Z,13.13
2019-04-30T12:40:31.790Z,12.87
2019-04-30T12:43:01.468Z,13.40
2019-04-30T12:45:31.201Z,12.77
2019-04-30T12:48:02.536Z,12.97
2019-04-30T12:50:36.689Z,16.03
2019-04-30T12:53:16.784Z,13.77
2019-04-30T12:55:54.003Z,11.73
2019-04-30T12:58:23.763Z,11.43
2019-04-30T13:01:12.779Z,12.63
2019-04-30T13:03:42.553Z,11.30
2019-04-30T13:06:13.036Z,11.53
2019-04-30T13:08:43.537Z,11.10
2019-04-30T13:11:14.068Z,11.03
2019-04-30T13:13:44.777Z,10.67
2019-04-30T13:16:14.908Z,11.93
2019-04-30T13:18:44.699Z,10.37
2019-04-30T13:21:14.647Z,11.53
2019-04-30T13:23:44.411Z,11.90
2019-04-30T13:26:14.171Z,10.70
2019-04-30T13:28:54.526Z,12.13
2019-04-30T13:31:24.294Z,10.37
2019-04-30T13:33:58.319Z,10.40
2019-04-30T13:36:27.010Z,10.50
2019-04-30T13:39:10.568Z,11.37
2019-04-30T13:41:46.250Z,10.00
2019-04-30T13:44:19.406Z,9.90
2019-04-30T13:46:49.280Z,10.10
2019-04-30T13:49:19.029Z,10.23
2019-04-30T13:51:48.823Z,10.67
2019-04-30T13:54:18.638Z,10.17
2019-04-30T13:56:49.334Z,11.93
2019-04-30T13:59:19.173Z,13.37
2019-04-30T14:01:49.001Z,12.17
2019-04-30T14:04:35.677Z,13.47
2019-04-30T14:07:06.988Z,16.40
2019-04-30T14:09:36.736Z,13.77
2019-04-30T14:12:06.486Z,13.33
2019-04-30T14:14:36.293Z,10.13
2019-04-30T14:17:06.516Z,13.17
2019-04-30T14:19:36.276Z,10.33
2019-04-30T14:22:08.809Z,9.20
2019-04-30T14:24:38.318Z,9.50
2019-04-30T14:27:09.002Z,8.27
2019-04-30T14:29:39.565Z,9.63
2019-04-30T14:32:10.369Z,9.67
2019-04-30T14:34:40.227Z,10.33
2019-04-30T14:37:09.990Z,9.10
2019-04-30T14:39:40.059Z,8.67
2019-04-30T14:42:11.495Z,9.17
2019-04-30T14:44:42.107Z,10.63
2019-04-30T14:47:14.310Z,9.90
2019-04-30T14:50:01.597Z,11.77
2019-04-30T14:52:24.512Z,10.93
2019-04-30T14:54:58.799Z,7.33
2019-04-30T14:57:51.063Z,7.30
2019-04-30T15:00:38.838Z,6.60
2019-04-30T15:03:13.740Z,7.43
2019-04-30T15:05:48.849Z,6.77
2019-04-30T15:08:14.846Z,6.13
2019-04-30T15:10:44.616Z,6.40
2019-04-30T15:13:14.349Z,6.20
2019-04-30T15:15:44.300Z,5.63
2019-04-30T15:18:14.044Z,5.90
2019-04-30T15:20:43.806Z,5.97
2019-04-30T15:23:21.870Z,7.87
2019-04-30T15:25:51.727Z,6.20
2019-04-30T15:28:21.481Z,6.23
2019-04-30T15:30:51.535Z,7.77
2019-04-30T15:33:35.152Z,7.47
2019-04-30T15:36:05.783Z,5.90
2019-04-30T15:38:53.639Z,10.73
2019-04-30T15:41:23.468Z,7.13
2019-04-30T15:43:53.232Z,5.90
2019-04-30T15:46:42.440Z,7.30
2019-04-30T15:49:12.227Z,8.50
2019-04-30T15:51:43.077Z,7.93
2019-04-30T15:54:13.703Z,11.07
2019-04-30T15:56:43.847Z,13.77
2019-04-30T15:59:24.158Z,15.30
2019-04-30T16:01:55.478Z,23.03
2019-04-30T16:04:35.373Z,14.50
2019-04-30T16:07:05.118Z,14.50
2019-04-30T16:09:54.246Z,18.37
2019-04-30T16:12:34.803Z,19.83
2019-04-30T16:15:05.471Z,19.70
2019-04-30T16:17:39.069Z,17.43
2019-04-30T16:20:08.529Z,16.67
2019-04-30T16:22:39.207Z,17.97
2019-04-30T16:25:09.192Z,20.63
2019-04-30T16:27:38.954Z,17.73
2019-04-30T16:30:09.575Z,8.53
2019-04-30T16:32:40.013Z,12.17
2019-04-30T16:35:09.841Z,9.23
2019-04-30T16:37:39.613Z,11.17
2019-04-30T16:40:10.413Z,10.33
2019-04-30T16:42:40.227Z,10.77
2019-04-30T16:45:10.128Z,10.57
2019-04-30T16:47:39.878Z,10.37
2019-04-30T16:50:10.960Z,11.33
2019-04-30T16:52:40.761Z,10.03
2019-04-30T16:55:10.698Z,11.03
2019-04-30T16:57:41.065Z,11.03
2019-04-30T17:00:13.232Z,13.67
2019-04-30T17:02:44.569Z,16.20
2019-04-30T17:05:20.553Z,18.17
2019-04-30T17:07:59.589Z,19.33
2019-04-30T17:10:33.670Z,20.03
2019-04-30T17:13:05.030Z,22.47
2019-04-30T17:15:36.644Z,22.13
2019-04-30T17:18:09.820Z,22.90
2019-04-30T17:20:38.701Z,22.03
2019-04-30T17:23:09.443Z,21.20
2019-04-30T17:25:39.422Z,20.53
2019-04-30T17:28:09.316Z,20.57
2019-04-30T17:30:39.234Z,18.97
2019-04-30T17:33:09.572Z,19.37
2019-04-30T17:35:39.416Z,16.47
2019-04-30T17:38:09.168Z,16.20
2019-04-30T17:40:39.037Z,17.27
2019-04-30T17:43:08.825Z,17.53
2019-04-30T17:45:39.154Z,22.07
2019-04-30T17:48:09.048Z,26.40
2019-04-30T17:50:39.615Z,27.47
2019-04-30T17:53:09.699Z,24.87
2019-04-30T17:55:39.429Z,25.33
2019-04-30T17:58:09.780Z,24.33
2019-04-30T18:00:41.320Z,23.90
2019-04-30T18:03:11.145Z,22.70
2019-04-30T18:05:40.934Z,22.13
2019-04-30T18:08:10.683Z,21.07
2019-04-30T18:10:41.163Z,21.87
2019-04-30T18:13:10.937Z,40.07
2019-04-30T18:15:40.685Z,30.17
2019-04-30T18:18:12.043Z,33.63
2019-04-30T18:20:46.351Z,66.03
2019-04-30T18:23:17.688Z,39.60
2019-04-30T18:25:51.967Z,31.83
2019-04-30T18:28:40.998Z,27.03
2019-04-30T18:31:10.753Z,29.50
2019-04-30T18:33:40.507Z,29.60
2019-04-30T18:36:10.230Z,34.43
2019-04-30T18:38:40.018Z,32.93
2019-04-30T18:41:09.776Z,90.17
2019-04-30T18:43:40.515Z,78.17
2019-04-30T18:46:11.964Z,66.83
2019-04-30T18:48:43.327Z,76.60
2019-04-30T18:51:30.070Z,63.23
2019-04-30T18:53:46.946Z,49.27
2019-04-30T18:56:15.864Z,47.07
2019-04-30T18:58:45.610Z,37.33
2019-04-30T19:01:15.662Z,33.23
2019-04-30T19:03:45.419Z,27.67
2019-04-30T19:06:23.843Z,26.30
2019-04-30T19:08:52.968Z,24.47
2019-04-30T19:11:24.387Z,36.13
2019-04-30T19:13:59.279Z,53.43
2019-04-30T19:16:46.813Z,36.77
2019-04-30T19:19:19.585Z,31.50
2019-04-30T19:21:49.415Z,36.93
2019-04-30T19:24:19.710Z,41.20
2019-04-30T19:26:49.608Z,42.83
2019-04-30T19:29:19.396Z,39.57
2019-04-30T19:31:49.507Z,32.07
2019-04-30T19:34:19.386Z,34.03
2019-04-30T19:36:49.341Z,32.90
2019-04-30T19:39:20.722Z,29.07
2019-04-30T19:41:50.514Z,30.07
2019-04-30T19:44:20.901Z,28.00
2019-04-30T19:46:50.821Z,33.20
2019-04-30T19:49:20.598Z,35.13
2019-04-30T19:51:53.128Z,44.23
2019-04-30T19:54:21.776Z,42.10
2019-04-30T19:56:51.537Z,38.90
2019-04-30T19:59:21.577Z,35.77
2019-04-30T20:01:52.643Z,35.77
2019-04-30T20:04:32.625Z,34.17
2019-04-30T20:06:53.889Z,36.93
2019-04-30T20:09:23.623Z,38.17
2019-04-30T20:11:53.383Z,36.30
2019-04-30T20:14:23.120Z,34.10
2019-04-30T20:16:52.898Z,36.20
2019-04-30T20:19:22.731Z,39.23
2019-04-30T20:21:53.994Z,39.40
2019-04-30T20:24:24.044Z,39.47
2019-04-30T20:27:04.150Z,40.77
2019-04-30T20:29:28.675Z,41.50
2019-04-30T20:31:58.978Z,40.40
2019-04-30T20:34:29.356Z,40.53
2019-04-30T20:37:00.318Z,38.03
2019-04-30T20:39:46.966Z,39.67
2019-04-30T20:42:16.707Z,39.27
2019-04-30T20:44:46.469Z,38.30
2019-04-30T20:47:16.209Z,37.53
2019-04-30T20:49:46.027Z,37.80
2019-04-30T20:52:15.755Z,40.47
2019-04-30T20:54:45.491Z,38.40
2019-04-30T20:57:15.281Z,37.80
2019-04-30T20:59:45.062Z,37.13
2019-04-30T21:02:14.796Z,37.30
2019-04-30T21:04:44.537Z,37.43
2019-04-30T21:07:14.302Z,35.07
2019-04-30T21:09:44.087Z,35.50
2019-04-30T21:12:13.827Z,34.60
2019-04-30T21:14:43.587Z,34.10
2019-04-30T21:17:13.347Z,35.07
2019-04-30T21:19:43.088Z,36.47
2019-04-30T21:22:12.891Z,36.20
2019-04-30T21:24:42.631Z,35.00
2019-04-30T21:27:12.396Z,35.53
2019-04-30T21:29:42.152Z,35.20
2019-04-30T21:32:18.950Z,34.50
2019-04-30T21:34:53.471Z,35.80
2019-04-30T21:37:23.205Z,35.03
2019-04-30T21:39:53.010Z,34.17
2019-04-30T21:42:22.755Z,34.97
2019-04-30T21:44:52.492Z,32.93
2019-04-30T21:47:22.228Z,33.63
2019-04-30T21:49:51.963Z,34.27
2019-04-30T21:52:40.995Z,32.90
2019-04-30T21:55:11.060Z,32.53
2019-04-30T21:57:41.391Z,30.43
2019-04-30T22:00:14.743Z,31.60
2019-04-30T22:02:46.037Z,30.83
2019-04-30T22:05:15.994Z,31.20
2019-04-30T22:07:45.746Z,31.40
2019-04-30T22:10:15.487Z,31.20
2019-04-30T22:12:45.232Z,31.07
2019-04-30T22:15:15.083Z,31.17
2019-04-30T22:17:44.831Z,30.33
2019-04-30T22:20:14.723Z,31.37
2019-04-30T22:22:44.477Z,29.63
2019-04-30T22:25:14.219Z,29.90
2019-04-30T22:27:43.987Z,29.13
2019-04-30T22:30:14.327Z,28.33
2019-04-30T22:32:44.167Z,30.33
2019-04-30T22:35:28.302Z,28.70
2019-04-30T22:38:05.424Z,27.50
2019-04-30T22:40:35.437Z,22.70
2019-04-30T22:43:05.200Z,22.23
2019-04-30T22:45:38.280Z,22.30
2019-04-30T22:48:08.868Z,22.87
2019-04-30T22:50:39.629Z,22.37
2019-04-30T22:53:09.740Z,28.60
2019-04-30T22:55:39.502Z,27.83
2019-04-30T22:58:09.563Z,26.77
2019-04-30T23:01:00.163Z,30.93
2019-04-30T23:03:31.564Z,30.57
2019-04-30T23:06:01.573Z,29.53
2019-04-30T23:08:31.344Z,26.50
2019-04-30T23:11:01.059Z,24.47
2019-04-30T23:13:30.831Z,22.37
2019-04-30T23:16:02.279Z,26.57
2019-04-30T23:18:32.301Z,24.50
2019-04-30T23:21:02.170Z,22.33
2019-04-30T23:23:31.958Z,22.60
2019-04-30T23:26:01.659Z,26.53
2019-04-30T23:28:31.417Z,23.47
2019-04-30T23:31:01.171Z,24.80
2019-04-30T23:33:30.911Z,24.50
2019-04-30T23:36:00.677Z,24.33
2019-04-30T23:38:30.416Z,29.00
2019-04-30T23:41:00.531Z,22.00
2019-04-30T23:43:30.273Z,23.30
2019-04-30T23:46:00.361Z,25.70
2019-04-30T23:48:30.488Z,22.57
2019-04-30T23:51:00.603Z,21.97
2019-04-30T23:53:30.469Z,22.53
2019-04-30T23:56:00.238Z,23.67
2019-04-30T23:58:29.966Z,30.23
